createdAt,value
2022-10-28T00:03:37.940Z,26.92
2022-10-28T00:07:41.045Z,23.73
2022-10-28T00:11:44.077Z,21.42
2022-10-28T00:15:48.519Z,25.00
2022-10-28T00:19:51.564Z,24.25
2022-10-28T00:23:54.924Z,25.30
2022-10-28T00:27:57.946Z,22.48
2022-10-28T00:32:02.675Z,21.35
2022-10-28T00:36:10.060Z,21.45
2022-10-28T00:40:13.670Z,22.05
2022-10-28T00:44:49.137Z,60.20
2022-10-28T00:48:59.761Z,26.70
2022-10-28T00:53:29.582Z,26.02
2022-10-28T00:57:35.583Z,24.98
2022-10-28T01:01:38.912Z,25.42
2022-10-28T01:05:45.381Z,27.20
2022-10-28T01:09:48.651Z,30.08
2022-10-28T01:14:05.784Z,58.92
2022-10-28T01:18:20.777Z,65.95
2022-10-28T01:22:28.393Z,40.80
2022-10-28T01:26:49.211Z,70.43
2022-10-28T01:31:20.611Z,72.95
2022-10-28T01:35:28.557Z,62.90
2022-10-28T01:39:35.617Z,82.55
2022-10-28T01:43:45.706Z,56.97
2022-10-28T01:47:54.713Z,66.85
2022-10-28T01:52:02.973Z,51.33
2022-10-28T01:56:11.170Z,89.70
2022-10-28T02:00:15.147Z,64.00
2022-10-28T02:04:19.726Z,68.97
2022-10-28T02:08:45.137Z,54.75
2022-10-28T02:12:53.763Z,61.67
2022-10-28T02:17:01.886Z,74.72
2022-10-28T02:21:15.052Z,73.22
2022-10-28T02:25:44.853Z,78.68
2022-10-28T02:29:52.101Z,72.25
2022-10-28T02:33:59.846Z,73.30
2022-10-28T02:38:10.942Z,58.92
2022-10-28T02:42:39.542Z,63.70
2022-10-28T02:46:46.639Z,54.35
2022-10-28T02:50:54.730Z,69.35
2022-10-28T02:55:01.555Z,93.70
2022-10-28T02:59:35.069Z,71.53
2022-10-28T03:03:38.160Z,50.63
2022-10-28T03:08:14.993Z,56.97
2022-10-28T03:12:19.422Z,46.58
2022-10-28T03:16:22.445Z,38.20
2022-10-28T03:20:25.484Z,57.67
2022-10-28T03:25:02.422Z,59.30
2022-10-28T03:29:06.968Z,62.58
2022-10-28T03:33:40.703Z,71.05
2022-10-28T03:38:17.772Z,65.07
2022-10-28T03:42:55.015Z,53.42
2022-10-28T03:47:33.377Z,60.33
2022-10-28T03:52:07.078Z,59.72
2022-10-28T03:56:15.463Z,75.57
2022-10-28T04:00:18.639Z,55.50
2022-10-28T04:04:57.045Z,58.53
2022-10-28T04:09:00.468Z,53.08
2022-10-28T04:13:37.049Z,50.22
2022-10-28T04:18:13.893Z,54.58
2022-10-28T04:22:56.131Z,44.75
2022-10-28T04:27:00.282Z,57.97
2022-10-28T04:31:36.965Z,58.22
2022-10-28T04:36:13.859Z,51.72
2022-10-28T04:40:18.437Z,45.58
2022-10-28T04:44:52.026Z,35.50
2022-10-28T04:49:28.882Z,37.42
2022-10-28T04:54:05.957Z,48.10
2022-10-28T04:58:42.601Z,83.03
2022-10-28T05:03:21.022Z,76.72
2022-10-28T05:07:24.017Z,56.55
2022-10-28T05:12:00.769Z,40.97
2022-10-28T05:16:37.644Z,55.15
2022-10-28T05:21:14.217Z,47.80
2022-10-28T05:25:52.819Z,49.63
2022-10-28T05:30:26.267Z,45.53
2022-10-28T05:35:03.317Z,54.13
2022-10-28T05:39:39.938Z,56.05
2022-10-28T05:44:16.309Z,43.67
2022-10-28T05:48:54.387Z,61.47
2022-10-28T05:53:28.340Z,69.85
2022-10-28T05:58:05.139Z,58.95
2022-10-28T06:02:41.997Z,33.70
2022-10-28T06:07:20.386Z,45.92
2022-10-28T06:11:52.402Z,45.00
2022-10-28T06:16:29.318Z,41.13
2022-10-28T06:21:06.240Z,44.47
2022-10-28T06:25:44.866Z,54.30
2022-10-28T06:30:18.823Z,47.28
2022-10-28T06:34:55.553Z,58.53
2022-10-28T06:39:32.319Z,33.63
2022-10-28T06:44:10.619Z,45.65
2022-10-28T06:48:45.979Z,38.15
2022-10-28T06:53:22.955Z,39.25
2022-10-28T06:57:59.616Z,39.85
2022-10-28T07:02:42.738Z,36.30
2022-10-28T07:07:12.861Z,32.35
2022-10-28T07:11:53.565Z,34.75
2022-10-28T07:16:05.337Z,27.65
2022-10-28T07:20:43.588Z,44.17
2022-10-28T07:25:17.328Z,34.28
2022-10-28T07:29:54.824Z,27.50
2022-10-28T07:34:31.513Z,22.13
2022-10-28T07:39:10.953Z,20.40
2022-10-28T07:43:47.761Z,20.13
2022-10-28T07:48:03.781Z,20.75
2022-10-28T07:52:37.994Z,20.95
2022-10-28T07:57:16.407Z,18.50
2022-10-28T08:01:50.400Z,20.83
2022-10-28T08:06:27.085Z,21.75
2022-10-28T08:10:30.111Z,17.98
2022-10-28T08:15:15.031Z,19.77
2022-10-28T08:19:42.702Z,18.02
2022-10-28T08:24:19.557Z,16.55
2022-10-28T08:28:56.505Z,15.13
2022-10-28T08:33:33.488Z,15.15
2022-10-28T08:38:12.059Z,15.25
2022-10-28T08:42:47.553Z,16.08
2022-10-28T08:47:21.055Z,16.02
2022-10-28T08:52:00.920Z,14.88
2022-10-28T08:56:37.002Z,15.35
2022-10-28T09:01:19.166Z,17.17
2022-10-28T09:05:50.088Z,15.88
2022-10-28T09:09:54.572Z,17.10
2022-10-28T09:14:38.641Z,14.88
2022-10-28T09:19:05.733Z,15.10
2022-10-28T09:23:44.949Z,15.07
2022-10-28T09:28:19.728Z,14.80
2022-10-28T09:32:56.370Z,15.32
2022-10-28T09:37:36.811Z,13.63
2022-10-28T09:42:13.960Z,12.50
2022-10-28T09:46:53.725Z,11.43
2022-10-28T09:51:12.122Z,10.88
2022-10-28T09:55:44.584Z,10.63
2022-10-28T10:00:18.868Z,10.30
2022-10-28T10:04:53.389Z,8.23
2022-10-28T10:09:32.078Z,7.10
2022-10-28T10:14:05.348Z,6.18
2022-10-28T10:18:48.644Z,5.82
2022-10-28T10:23:28.667Z,5.88
2022-10-28T10:28:03.107Z,4.50
2022-10-28T10:32:39.769Z,5.53
2022-10-28T10:37:22.857Z,5.18
2022-10-28T10:41:36.169Z,4.53
2022-10-28T10:46:15.037Z,4.13
2022-10-28T10:50:47.700Z,4.55
2022-10-28T10:55:26.524Z,4.13
2022-10-28T10:59:57.861Z,4.18
2022-10-28T12:15:23.095Z,2.47
2022-10-28T12:19:54.929Z,2.83
2022-10-28T12:24:29.905Z,3.38
2022-10-28T12:28:38.983Z,2.40
2022-10-28T12:33:09.713Z,2.70
2022-10-28T12:37:19.726Z,2.70
2022-10-28T12:41:51.189Z,2.55
2022-10-28T12:45:56.617Z,2.50
2022-10-28T12:50:33.625Z,2.47
2022-10-28T12:54:53.567Z,2.72
2022-10-28T12:59:05.611Z,2.50
2022-10-28T13:03:33.308Z,2.80
2022-10-28T13:07:57.701Z,2.75
2022-10-28T13:12:55.682Z,2.40
2022-10-28T13:17:16.163Z,2.30
2022-10-28T13:21:43.264Z,2.72
2022-10-28T13:26:39.077Z,2.80
2022-10-28T13:31:16.765Z,3.08
2022-10-28T13:40:37.706Z,2.80
2022-10-28T13:45:29.225Z,3.30
2022-10-28T13:50:15.125Z,2.80
2022-10-28T13:54:32.122Z,3.28
2022-10-28T13:59:02.822Z,3.03
2022-10-28T14:03:40.162Z,3.35
2022-10-28T14:07:54.723Z,3.95
2022-10-28T14:12:24.257Z,3.30
2022-10-28T14:16:30.867Z,3.92
2022-10-28T14:21:02.090Z,4.20
2022-10-28T14:25:40.302Z,3.90
2022-10-28T14:29:49.868Z,3.80
2022-10-28T14:34:44.807Z,3.92
2022-10-28T14:39:18.735Z,3.88
2022-10-28T14:43:42.413Z,4.00
2022-10-28T14:48:27.893Z,3.75
2022-10-28T14:52:36.406Z,3.75
2022-10-28T14:56:40.949Z,3.50
2022-10-28T15:00:50.811Z,3.95
2022-10-28T15:05:02.928Z,4.68
2022-10-28T15:09:17.706Z,4.40
2022-10-28T15:13:22.304Z,5.85
2022-10-28T15:17:27.155Z,7.15
2022-10-28T15:21:30.180Z,7.47
2022-10-28T15:26:09.098Z,4.50
2022-10-28T15:30:16.612Z,5.15
2022-10-28T15:34:22.186Z,5.57
2022-10-28T15:39:06.533Z,4.97
2022-10-28T15:43:20.351Z,4.55
2022-10-28T15:47:45.812Z,4.53
2022-10-28T15:52:23.966Z,4.90
2022-10-28T15:56:58.287Z,4.55
2022-10-28T16:01:40.787Z,5.07
2022-10-28T16:06:29.885Z,11.82
2022-10-28T16:10:36.463Z,6.28
2022-10-28T16:14:40.803Z,5.45
2022-10-28T16:19:25.485Z,8.90
2022-10-28T16:23:56.392Z,7.45
2022-10-28T16:28:30.546Z,5.70
2022-10-28T16:32:38.844Z,5.57
2022-10-28T16:36:43.260Z,4.80
2022-10-28T16:40:51.325Z,13.75
2022-10-28T16:44:55.228Z,5.75
2022-10-28T16:49:32.848Z,5.57
2022-10-28T16:54:12.818Z,5.35
2022-10-28T16:58:16.113Z,6.03
2022-10-28T17:02:54.394Z,6.10
2022-10-28T17:06:57.403Z,8.77
2022-10-28T17:11:02.048Z,6.60
2022-10-28T17:15:38.726Z,7.18
2022-10-28T17:19:42.238Z,6.53
2022-10-28T17:24:20.401Z,5.70
2022-10-28T17:28:55.812Z,5.63
2022-10-28T17:33:32.633Z,8.38
2022-10-28T17:38:09.564Z,6.70
2022-10-28T17:42:13.129Z,8.05
2022-10-28T17:46:18.075Z,8.68
2022-10-28T17:50:21.111Z,35.33
2022-10-28T17:54:57.814Z,13.75
2022-10-28T17:59:01.606Z,9.15
2022-10-28T18:03:39.804Z,8.25
2022-10-28T18:07:43.040Z,32.58
2022-10-28T18:11:46.114Z,8.75
2022-10-28T18:15:49.150Z,12.35
2022-10-28T18:20:27.494Z,7.50
2022-10-28T18:24:30.539Z,7.78
2022-10-28T18:29:05.321Z,7.03
2022-10-28T18:33:08.352Z,6.50
2022-10-28T18:37:46.563Z,7.30
2022-10-28T18:41:51.431Z,7.32
2022-10-28T18:46:28.874Z,8.02
2022-10-28T18:51:04.023Z,8.48
2022-10-28T18:55:39.819Z,8.95
2022-10-28T19:00:12.403Z,8.75
2022-10-28T19:04:17.935Z,7.80
2022-10-28T19:08:21.001Z,8.38
2022-10-28T19:12:25.499Z,7.82
2022-10-28T19:16:29.725Z,8.15
2022-10-28T19:21:08.435Z,8.05
2022-10-28T19:25:11.567Z,7.70
2022-10-28T19:29:16.114Z,7.80
2022-10-28T19:33:50.138Z,8.93
2022-10-28T19:38:27.101Z,8.23
2022-10-28T19:43:03.976Z,8.52
2022-10-28T19:47:42.403Z,8.05
2022-10-28T19:52:16.566Z,8.20
2022-10-28T19:56:20.306Z,8.38
2022-10-28T20:00:23.617Z,7.70
2022-10-28T20:05:01.913Z,7.43
2022-10-28T20:09:05.182Z,8.98
2022-10-28T20:13:42.098Z,9.27
2022-10-28T20:18:19.014Z,7.50
2022-10-28T20:22:57.261Z,8.32
2022-10-28T20:27:00.694Z,7.47
2022-10-28T20:31:06.448Z,7.57
2022-10-28T20:35:10.113Z,8.85
2022-10-28T20:39:18.023Z,8.85
2022-10-28T20:43:50.571Z,8.82
2022-10-28T20:48:24.548Z,7.13
2022-10-28T20:53:01.707Z,8.13
2022-10-28T20:57:06.267Z,9.07
2022-10-28T21:01:41.040Z,10.00
2022-10-28T21:05:44.701Z,9.95
2022-10-28T21:09:47.778Z,9.70
2022-10-28T21:14:25.986Z,9.30
2022-10-28T21:19:00.361Z,9.90
2022-10-28T21:23:03.750Z,8.35
2022-10-28T21:27:36.080Z,9.48
2022-10-28T21:31:40.528Z,9.13
2022-10-28T21:35:43.572Z,9.63
2022-10-28T21:39:47.187Z,9.30
2022-10-28T21:43:51.959Z,9.18
2022-10-28T21:47:57.319Z,9.40
2022-10-28T21:52:31.346Z,9.95
2022-10-28T21:56:34.370Z,9.55
2022-10-28T22:00:37.429Z,10.10
2022-10-28T22:04:41.839Z,10.50
2022-10-28T22:08:44.991Z,10.38
2022-10-28T22:12:49.103Z,10.10
2022-10-28T22:17:23.020Z,10.15
2022-10-28T22:21:29.304Z,10.90
2022-10-28T22:26:03.204Z,10.57
2022-10-28T22:30:06.817Z,9.25
2022-10-28T22:34:09.849Z,10.13
2022-10-28T22:38:14.310Z,9.90
2022-10-28T22:42:17.377Z,8.90
2022-10-28T22:46:54.188Z,10.15
2022-10-28T22:50:57.546Z,9.50
2022-10-28T22:55:31.269Z,9.68
2022-10-28T22:59:35.712Z,10.57
2022-10-28T23:03:41.682Z,10.05
2022-10-28T23:08:15.088Z,8.82
2022-10-28T23:12:18.136Z,9.50
2022-10-28T23:16:23.946Z,9.65
2022-10-28T23:20:27.142Z,9.98
2022-10-28T23:25:03.716Z,11.05
2022-10-28T23:29:06.869Z,8.80
2022-10-28T23:33:11.270Z,9.40
2022-10-28T23:37:44.992Z,10.98
2022-10-28T23:41:48.025Z,11.35
2022-10-28T23:45:51.035Z,9.93
2022-10-28T23:49:55.450Z,10.50
2022-10-28T23:53:58.644Z,10.15
2022-10-28T23:58:01.757Z,11.82
